createdAt,value
2017-12-19T00:00:34.113Z,7.98
2017-12-19T00:01:14.662Z,7.93
2017-12-19T00:01:55.230Z,7.95
2017-12-19T00:02:35.758Z,7.87
2017-12-19T00:03:16.296Z,7.92
2017-12-19T00:03:56.849Z,7.89
2017-12-19T00:04:37.373Z,7.89
2017-12-19T00:05:17.961Z,7.93
2017-12-19T00:05:58.442Z,7.97
2017-12-19T00:06:38.975Z,7.86
2017-12-19T00:07:19.488Z,8.04
2017-12-19T00:08:00.049Z,7.89
2017-12-19T00:08:40.584Z,7.92
2017-12-19T00:09:21.134Z,7.83
2017-12-19T00:10:01.663Z,7.89
2017-12-19T00:10:42.253Z,7.83
2017-12-19T00:11:22.781Z,7.68
2017-12-19T00:12:03.306Z,7.75
2017-12-19T00:12:43.851Z,7.82
2017-12-19T00:13:24.421Z,7.86
2017-12-19T00:14:04.990Z,7.77
2017-12-19T00:14:45.487Z,7.75
2017-12-19T00:15:26.052Z,7.75
2017-12-19T00:16:06.582Z,7.75
2017-12-19T00:16:47.140Z,7.72
2017-12-19T00:17:27.713Z,7.93
2017-12-19T00:18:08.212Z,7.86
2017-12-19T00:18:48.758Z,7.79
2017-12-19T00:19:29.292Z,7.8
2017-12-19T00:20:09.827Z,7.83
2017-12-19T00:20:50.498Z,7.67
2017-12-19T00:21:31.062Z,7.79
2017-12-19T00:22:11.598Z,7.74
2017-12-19T00:22:52.139Z,7.69
2017-12-19T00:23:32.680Z,7.63
2017-12-19T00:24:13.199Z,7.64
2017-12-19T00:24:53.776Z,7.75
2017-12-19T00:25:34.270Z,7.74
2017-12-19T00:26:14.838Z,7.75
2017-12-19T00:26:55.385Z,7.79
2017-12-19T00:27:35.928Z,7.63
2017-12-19T00:28:16.474Z,7.63
2017-12-19T00:28:57.038Z,7.68
2017-12-19T00:29:37.591Z,7.79
2017-12-19T00:30:18.106Z,7.69
2017-12-19T00:30:58.654Z,7.79
2017-12-19T00:31:39.225Z,7.8
2017-12-19T00:32:19.789Z,7.72
2017-12-19T00:33:00.330Z,7.68
2017-12-19T00:33:40.878Z,7.63
2017-12-19T00:34:21.455Z,7.58
2017-12-19T00:35:01.978Z,7.79
2017-12-19T00:35:42.531Z,7.58
2017-12-19T00:36:23.065Z,7.68
2017-12-19T00:37:03.601Z,7.69
2017-12-19T00:37:44.135Z,7.58
2017-12-19T00:38:24.664Z,7.53
2017-12-19T00:39:05.214Z,7.64
2017-12-19T00:39:45.758Z,7.69
2017-12-19T00:40:26.299Z,7.53
2017-12-19T00:41:06.846Z,7.61
2017-12-19T00:41:47.384Z,7.57
2017-12-19T00:42:27.934Z,7.63
2017-12-19T00:43:08.453Z,7.68
2017-12-19T00:43:49.016Z,7.68
2017-12-19T00:44:29.525Z,7.75
2017-12-19T00:45:10.070Z,7.74
2017-12-19T00:45:50.652Z,7.72
2017-12-19T00:46:31.221Z,7.82
2017-12-19T00:47:11.754Z,7.82
2017-12-19T00:47:52.308Z,7.86
2017-12-19T00:48:32.849Z,7.92
2017-12-19T00:49:13.395Z,7.9
2017-12-19T00:49:53.922Z,7.86
2017-12-19T00:50:34.467Z,7.71
2017-12-19T00:51:15.015Z,7.63
2017-12-19T00:51:55.569Z,7.71
2017-12-19T00:52:36.109Z,7.69
2017-12-19T00:53:16.655Z,7.69
2017-12-19T00:53:57.212Z,7.68
2017-12-19T00:54:37.760Z,7.68
2017-12-19T00:55:18.314Z,7.71
2017-12-19T00:55:58.851Z,7.61
2017-12-19T00:56:39.388Z,7.71
2017-12-19T00:57:19.931Z,7.79
2017-12-19T00:58:00.479Z,7.77
2017-12-19T00:58:41.003Z,7.67
2017-12-19T00:59:21.545Z,7.63
2017-12-19T01:00:02.071Z,7.64
2017-12-19T01:00:42.630Z,7.61
2017-12-19T01:01:23.193Z,7.8
2017-12-19T01:02:03.746Z,7.74
2017-12-19T01:02:44.278Z,7.82
2017-12-19T01:03:24.817Z,7.85
2017-12-19T01:04:05.406Z,7.8
2017-12-19T01:04:45.909Z,7.95
2017-12-19T01:05:26.445Z,7.92
2017-12-19T01:06:06.981Z,7.93
2017-12-19T01:06:47.538Z,7.89
2017-12-19T01:07:28.093Z,7.95
2017-12-19T01:08:08.635Z,8
2017-12-19T01:08:49.210Z,8.04
2017-12-19T01:09:29.728Z,7.93
2017-12-19T01:10:10.257Z,8.05
2017-12-19T01:10:50.808Z,7.92
2017-12-19T01:11:31.379Z,7.89
2017-12-19T01:12:11.892Z,7.83
2017-12-19T01:12:52.482Z,7.85
2017-12-19T01:13:33.014Z,7.83
2017-12-19T01:14:13.540Z,7.9
2017-12-19T01:14:54.078Z,7.87
2017-12-19T01:15:34.624Z,7.82
2017-12-19T01:16:15.197Z,7.71
2017-12-19T01:16:55.735Z,7.74
2017-12-19T01:17:36.269Z,7.57
2017-12-19T01:18:16.805Z,7.71
2017-12-19T01:18:57.361Z,7.67
2017-12-19T01:19:37.925Z,7.64
2017-12-19T01:20:18.427Z,7.64
2017-12-19T01:20:58.977Z,7.69
2017-12-19T01:21:39.489Z,7.69
2017-12-19T01:22:20.028Z,7.83
2017-12-19T01:23:00.574Z,7.92
2017-12-19T01:23:41.117Z,7.77
2017-12-19T01:24:21.681Z,7.75
2017-12-19T01:25:02.232Z,7.75
2017-12-19T01:25:42.790Z,7.69
2017-12-19T01:26:23.334Z,7.67
2017-12-19T01:27:03.880Z,7.69
2017-12-19T01:27:44.436Z,7.69
2017-12-19T01:28:24.960Z,7.63
2017-12-19T01:29:05.511Z,7.69
2017-12-19T01:29:46.053Z,7.61
2017-12-19T01:30:26.616Z,7.63
2017-12-19T01:31:07.171Z,7.68
2017-12-19T01:31:47.745Z,7.64
2017-12-19T01:32:28.299Z,7.53
2017-12-19T01:33:08.833Z,7.63
2017-12-19T01:33:49.364Z,7.75
2017-12-19T01:34:29.913Z,7.71
2017-12-19T01:35:10.429Z,7.61
2017-12-19T01:35:50.955Z,7.61
2017-12-19T01:36:31.501Z,7.68
2017-12-19T01:37:12.044Z,7.61
2017-12-19T01:37:52.582Z,7.58
2017-12-19T01:38:33.102Z,7.79
2017-12-19T01:39:13.637Z,7.8
2017-12-19T01:39:54.173Z,7.64
2017-12-19T01:40:34.732Z,7.63
2017-12-19T01:41:15.286Z,7.55
2017-12-19T01:41:55.817Z,7.67
2017-12-19T01:42:36.333Z,7.64
2017-12-19T01:43:16.894Z,7.68
2017-12-19T01:43:57.433Z,7.55
2017-12-19T01:44:37.967Z,7.53
2017-12-19T01:45:18.539Z,7.55
2017-12-19T01:45:59.087Z,7.49
2017-12-19T01:46:39.647Z,7.58
2017-12-19T01:47:20.170Z,7.75
2017-12-19T01:48:00.709Z,7.63
2017-12-19T01:48:41.246Z,7.69
2017-12-19T01:49:21.781Z,7.74
2017-12-19T01:50:02.300Z,7.69
2017-12-19T01:50:42.844Z,7.69
2017-12-19T01:51:23.385Z,7.58
2017-12-19T01:52:03.928Z,7.71
2017-12-19T01:52:44.495Z,7.74
2017-12-19T01:53:25.054Z,7.58
2017-12-19T01:54:05.588Z,7.67
2017-12-19T01:54:46.136Z,7.67
2017-12-19T01:55:26.659Z,7.58
2017-12-19T01:56:07.225Z,7.53
2017-12-19T01:56:47.780Z,7.67
2017-12-19T01:57:28.373Z,7.75
2017-12-19T01:58:08.904Z,7.72
2017-12-19T01:58:49.427Z,7.64
2017-12-19T01:59:29.978Z,7.67
2017-12-19T02:00:10.526Z,7.67
2017-12-19T02:00:51.055Z,7.64
2017-12-19T02:01:31.608Z,7.75
2017-12-19T02:02:12.170Z,7.72
2017-12-19T02:02:52.706Z,7.68
2017-12-19T02:03:33.240Z,7.72
2017-12-19T02:04:13.769Z,7.75
2017-12-19T02:04:54.301Z,7.83
2017-12-19T02:05:34.888Z,7.75
2017-12-19T02:06:15.457Z,7.67
2017-12-19T02:06:55.993Z,7.86
2017-12-19T02:07:36.551Z,7.83
2017-12-19T02:08:17.113Z,7.86
2017-12-19T02:08:57.650Z,7.77
2017-12-19T02:09:38.243Z,7.58
2017-12-19T02:10:18.781Z,7.72
2017-12-19T02:10:59.291Z,7.75
2017-12-19T02:11:39.850Z,7.69
2017-12-19T02:12:20.379Z,7.85
2017-12-19T02:13:00.959Z,7.69
2017-12-19T02:13:41.494Z,7.79
2017-12-19T02:14:22.064Z,7.82
2017-12-19T02:15:02.614Z,7.93
2017-12-19T02:15:43.152Z,7.89
2017-12-19T02:16:23.715Z,7.93
2017-12-19T02:17:04.272Z,7.83
2017-12-19T02:17:44.821Z,7.85
2017-12-19T02:18:25.368Z,7.85
2017-12-19T02:19:05.888Z,7.9
2017-12-19T02:19:46.425Z,7.87
2017-12-19T02:20:26.950Z,7.97
2017-12-19T02:21:07.523Z,7.93
2017-12-19T02:21:48.055Z,7.86
2017-12-19T02:22:28.590Z,7.87
2017-12-19T02:23:09.137Z,7.89
2017-12-19T02:23:49.671Z,7.71
2017-12-19T02:24:30.208Z,7.74
2017-12-19T02:25:10.718Z,7.82
2017-12-19T02:25:51.290Z,7.71
2017-12-19T02:26:31.823Z,7.87
2017-12-19T02:27:12.405Z,7.75
2017-12-19T02:27:52.921Z,7.85
2017-12-19T02:28:33.470Z,7.92
2017-12-19T02:29:14.010Z,7.92
2017-12-19T02:29:54.528Z,8.02
2017-12-19T02:30:35.081Z,8.01
2017-12-19T02:31:15.632Z,7.89
2017-12-19T02:31:56.189Z,7.83
2017-12-19T02:32:36.756Z,7.83
2017-12-19T02:33:17.299Z,7.75
2017-12-19T02:33:57.827Z,7.61
2017-12-19T02:34:38.361Z,7.61
2017-12-19T02:35:18.879Z,7.61
2017-12-19T02:35:59.391Z,7.53
2017-12-19T02:36:39.935Z,7.67
2017-12-19T02:37:20.484Z,7.63
2017-12-19T02:38:01.020Z,7.72
2017-12-19T02:38:41.588Z,7.71
2017-12-19T02:39:22.109Z,7.74
2017-12-19T02:40:02.636Z,7.67
2017-12-19T02:40:43.169Z,7.52
2017-12-19T02:41:23.695Z,7.52
2017-12-19T02:42:04.244Z,7.48
2017-12-19T02:42:44.757Z,7.53
2017-12-19T02:43:25.320Z,7.52
2017-12-19T02:44:05.848Z,7.67
2017-12-19T02:44:46.378Z,7.68
2017-12-19T02:45:26.912Z,7.49
2017-12-19T02:46:07.466Z,7.52
2017-12-19T02:46:47.984Z,7.48
2017-12-19T02:47:28.510Z,7.64
2017-12-19T02:48:09.029Z,7.72
2017-12-19T02:48:49.581Z,7.72
2017-12-19T02:49:30.127Z,7.6
2017-12-19T02:50:10.688Z,7.67
2017-12-19T02:50:51.248Z,7.69
2017-12-19T02:51:31.797Z,7.69
2017-12-19T02:52:12.348Z,7.74
2017-12-19T02:52:52.878Z,7.72
2017-12-19T02:53:33.415Z,7.83
2017-12-19T02:54:13.957Z,7.83
2017-12-19T02:54:54.502Z,7.8
2017-12-19T02:55:35.049Z,7.72
2017-12-19T02:56:15.583Z,7.68
2017-12-19T02:56:56.130Z,7.72
2017-12-19T02:57:36.662Z,7.72
2017-12-19T02:58:17.231Z,7.68
2017-12-19T02:58:57.775Z,7.77
2017-12-19T02:59:38.329Z,7.79
2017-12-19T03:00:18.900Z,7.79
2017-12-19T03:00:59.435Z,7.89
2017-12-19T03:01:39.972Z,7.89
2017-12-19T03:02:20.524Z,7.97
2017-12-19T03:03:01.053Z,7.89
2017-12-19T03:03:41.579Z,8.04
2017-12-19T03:04:22.135Z,8.01
2017-12-19T03:05:02.673Z,8
2017-12-19T03:05:43.213Z,8.01
2017-12-19T03:06:23.780Z,8
2017-12-19T03:07:04.313Z,8.01
2017-12-19T03:07:44.860Z,8.04
2017-12-19T03:08:25.401Z,8.04
2017-12-19T03:09:05.915Z,7.92
2017-12-19T03:09:46.446Z,7.95
2017-12-19T03:10:27.015Z,7.92
2017-12-19T03:11:07.555Z,7.89
2017-12-19T03:11:48.088Z,7.89
2017-12-19T03:12:28.648Z,7.93
2017-12-19T03:13:09.162Z,8.04
2017-12-19T03:13:49.720Z,7.98
2017-12-19T03:14:30.256Z,8.02
2017-12-19T03:15:10.792Z,8.05
2017-12-19T03:15:51.342Z,7.97
2017-12-19T03:16:31.878Z,8.02
2017-12-19T03:17:12.384Z,8.07
2017-12-19T03:17:52.922Z,7.89
2017-12-19T03:18:33.493Z,7.9
2017-12-19T03:19:14.051Z,7.86
2017-12-19T03:19:54.595Z,8
2017-12-19T03:20:35.157Z,7.98
2017-12-19T03:21:15.752Z,7.9
2017-12-19T03:21:56.304Z,7.93
2017-12-19T03:22:36.867Z,7.89
2017-12-19T03:23:17.388Z,7.98
2017-12-19T03:23:57.924Z,8.02
2017-12-19T03:24:38.460Z,7.97
2017-12-19T03:25:19.161Z,7.89
2017-12-19T03:26:56.591Z,7.89
2017-12-19T03:27:37.108Z,7.92
2017-12-19T03:28:17.717Z,7.87
2017-12-19T03:28:58.231Z,7.97
2017-12-19T03:29:38.781Z,7.92
2017-12-19T03:30:19.315Z,7.85
2017-12-19T03:30:59.874Z,7.79
2017-12-19T03:31:40.398Z,7.69
2017-12-19T03:32:20.945Z,7.79
2017-12-19T03:33:01.458Z,7.82
2017-12-19T03:33:42.005Z,7.71
2017-12-19T03:34:22.570Z,7.68
2017-12-19T03:35:03.105Z,7.63
2017-12-19T03:35:43.620Z,7.58
2017-12-19T03:36:24.178Z,7.68
2017-12-19T03:37:04.703Z,7.74
2017-12-19T03:37:45.226Z,7.75
2017-12-19T03:38:25.779Z,7.86
2017-12-19T03:39:06.290Z,7.86
2017-12-19T03:39:46.830Z,7.89
2017-12-19T03:40:27.373Z,7.97
2017-12-19T03:41:07.934Z,7.87
2017-12-19T03:41:48.484Z,7.9
2017-12-19T03:42:29.047Z,7.98
2017-12-19T03:43:09.602Z,7.97
2017-12-19T03:43:50.127Z,8.01
2017-12-19T03:44:30.659Z,8
2017-12-19T03:45:11.195Z,8
2017-12-19T03:45:51.746Z,7.77
2017-12-19T03:46:32.267Z,7.64
2017-12-19T03:47:12.782Z,7.71
2017-12-19T03:47:53.322Z,7.63
2017-12-19T03:48:33.896Z,7.67
2017-12-19T03:49:14.450Z,7.67
2017-12-19T03:49:54.987Z,7.69
2017-12-19T03:50:35.535Z,7.74
2017-12-19T03:51:16.082Z,7.75
2017-12-19T03:51:56.602Z,7.68
2017-12-19T03:52:37.123Z,7.8
2017-12-19T03:53:17.690Z,7.86
2017-12-19T03:53:58.229Z,7.89
2017-12-19T03:54:38.775Z,7.9
2017-12-19T03:55:19.318Z,7.9
2017-12-19T03:55:59.878Z,7.93
2017-12-19T03:56:40.397Z,7.86
2017-12-19T03:57:20.955Z,7.86
2017-12-19T03:58:01.491Z,7.97
2017-12-19T03:58:42.024Z,7.98
2017-12-19T03:59:22.598Z,7.89
2017-12-19T04:00:03.073Z,7.93
2017-12-19T04:00:43.641Z,8.01
2017-12-19T04:01:24.140Z,7.97
2017-12-19T04:02:04.714Z,7.95
2017-12-19T04:02:45.279Z,7.97
2017-12-19T04:03:25.808Z,7.71
2017-12-19T04:04:06.337Z,7.8
2017-12-19T04:04:46.908Z,7.85
2017-12-19T04:05:27.464Z,7.79
2017-12-19T04:06:08.008Z,7.8
2017-12-19T04:06:48.537Z,7.77
2017-12-19T04:07:29.107Z,7.75
2017-12-19T04:08:09.638Z,7.71
2017-12-19T04:08:50.163Z,7.55
2017-12-19T04:09:30.680Z,7.61
2017-12-19T04:10:11.223Z,7.58
2017-12-19T04:10:51.754Z,7.64
2017-12-19T04:11:32.304Z,7.67
2017-12-19T04:12:12.856Z,7.69
2017-12-19T04:12:53.395Z,7.75
2017-12-19T04:13:33.933Z,7.82
2017-12-19T04:14:14.468Z,7.86
2017-12-19T04:14:55.028Z,7.75
2017-12-19T04:15:35.569Z,7.72
2017-12-19T04:16:16.168Z,7.67
2017-12-19T04:16:56.703Z,7.55
2017-12-19T04:17:37.262Z,7.52
2017-12-19T04:18:17.829Z,7.48
2017-12-19T04:18:58.368Z,7.53
2017-12-19T04:19:38.909Z,7.42
2017-12-19T04:20:19.462Z,7.55
2017-12-19T04:21:00.016Z,7.5
2017-12-19T04:21:40.548Z,7.52
2017-12-19T04:22:21.108Z,7.52
2017-12-19T04:23:01.638Z,7.52
2017-12-19T04:23:42.205Z,7.5
2017-12-19T04:24:22.752Z,7.49
2017-12-19T04:25:03.285Z,7.55
2017-12-19T04:25:43.815Z,7.57
2017-12-19T04:26:24.351Z,7.52
2017-12-19T04:27:04.887Z,7.64
2017-12-19T04:27:45.440Z,7.61
2017-12-19T04:28:25.960Z,7.5
2017-12-19T04:29:06.513Z,7.5
2017-12-19T04:29:47.004Z,7.64
2017-12-19T04:30:27.557Z,7.55
2017-12-19T04:31:08.082Z,7.57
2017-12-19T04:31:48.636Z,7.53
2017-12-19T04:32:29.167Z,7.53
2017-12-19T04:33:09.694Z,7.58
2017-12-19T04:33:50.231Z,7.69
2017-12-19T04:34:30.784Z,7.79
2017-12-19T04:35:11.288Z,7.75
2017-12-19T04:35:51.829Z,7.75
2017-12-19T04:36:32.390Z,7.58
2017-12-19T04:37:12.892Z,7.57
2017-12-19T04:37:53.477Z,7.68
2017-12-19T04:38:34.008Z,7.67
2017-12-19T04:39:14.560Z,7.68
2017-12-19T04:39:55.111Z,7.72
2017-12-19T04:40:35.649Z,7.77
2017-12-19T04:41:16.203Z,7.72
2017-12-19T04:41:56.753Z,7.69
2017-12-19T04:42:37.291Z,7.68
2017-12-19T04:43:17.845Z,7.72
2017-12-19T04:43:58.353Z,7.72
2017-12-19T04:44:38.901Z,7.75
2017-12-19T04:45:19.426Z,7.72
2017-12-19T04:45:59.963Z,7.67
2017-12-19T04:46:40.484Z,7.71
2017-12-19T04:47:21.024Z,7.5
2017-12-19T04:48:01.569Z,7.61
2017-12-19T04:48:42.121Z,7.61
2017-12-19T04:49:22.684Z,7.64
2017-12-19T04:50:03.214Z,7.61
2017-12-19T04:50:43.769Z,7.77
2017-12-19T04:51:24.307Z,7.69
2017-12-19T04:52:04.855Z,7.57
2017-12-19T04:52:45.383Z,7.68
2017-12-19T04:53:25.937Z,7.68
2017-12-19T04:54:06.508Z,7.67
2017-12-19T04:54:47.010Z,7.77
2017-12-19T04:55:27.551Z,7.68
2017-12-19T04:56:08.104Z,7.68
2017-12-19T04:56:48.644Z,7.79
2017-12-19T04:57:29.182Z,7.75
2017-12-19T04:58:09.716Z,7.74
2017-12-19T04:58:50.262Z,7.72
2017-12-19T04:59:30.823Z,7.83
2017-12-19T05:00:11.361Z,7.89
2017-12-19T05:00:52.004Z,7.85
2017-12-19T05:01:32.449Z,7.95
2017-12-19T05:02:12.977Z,7.89
2017-12-19T05:02:53.537Z,7.9
2017-12-19T05:03:34.097Z,8.01
2017-12-19T05:04:14.640Z,7.9
2017-12-19T05:04:55.161Z,8.05
2017-12-19T05:05:35.704Z,8.02
2017-12-19T05:06:16.247Z,8.01
2017-12-19T05:06:56.781Z,8.02
2017-12-19T05:07:37.339Z,8.01
2017-12-19T05:08:17.886Z,8.02
2017-12-19T05:08:58.441Z,7.97
2017-12-19T05:09:38.993Z,8.07
2017-12-19T05:10:19.523Z,8.07
2017-12-19T05:11:00.082Z,8.02
2017-12-19T05:11:40.634Z,8.1
2017-12-19T05:12:21.163Z,8.07
2017-12-19T05:13:01.720Z,7.98
2017-12-19T05:13:42.258Z,8.07
2017-12-19T05:14:22.799Z,8.18
2017-12-19T05:15:03.344Z,8.19
2017-12-19T05:15:43.880Z,8.07
2017-12-19T05:16:24.433Z,7.97
2017-12-19T05:17:04.975Z,8
2017-12-19T05:17:45.507Z,8.01
2017-12-19T05:18:26.065Z,7.97
2017-12-19T05:19:06.617Z,8.04
2017-12-19T05:19:47.180Z,8.01
2017-12-19T05:20:27.722Z,8.1
2017-12-19T05:21:08.262Z,8.02
2017-12-19T05:21:48.786Z,8.11
2017-12-19T05:22:29.327Z,8.01
2017-12-19T05:23:09.924Z,8.11
2017-12-19T05:23:50.491Z,8.04
2017-12-19T05:24:31.041Z,7.97
2017-12-19T05:25:11.614Z,8.04
2017-12-19T05:25:52.158Z,8.01
2017-12-19T05:26:32.713Z,7.95
2017-12-19T05:27:13.294Z,7.98
2017-12-19T05:27:53.826Z,7.89
2017-12-19T05:28:34.393Z,7.92
2017-12-19T05:29:14.907Z,8.01
2017-12-19T05:29:55.468Z,8.01
2017-12-19T05:30:35.990Z,7.89
2017-12-19T05:31:16.543Z,8.01
2017-12-19T05:31:57.083Z,7.87
2017-12-19T05:32:37.627Z,7.98
2017-12-19T22:20:00.921Z,7.2
2017-12-19T22:20:41.408Z,7.07
2017-12-19T22:21:21.947Z,7.02
2017-12-19T22:22:02.534Z,6.98
2017-12-19T22:22:43.092Z,7.03
2017-12-19T22:23:23.631Z,6.91
2017-12-19T22:24:04.203Z,7.12
2017-12-19T22:24:44.679Z,7.06
2017-12-19T22:25:25.373Z,7.13
2017-12-19T22:26:06.006Z,7.05
2017-12-19T22:26:46.528Z,7.06
2017-12-19T22:27:27.094Z,7.06
2017-12-19T22:28:07.654Z,6.87
2017-12-19T22:28:48.206Z,6.91
2017-12-19T22:29:28.738Z,7.03
2017-12-19T22:30:09.320Z,7.06
2017-12-19T22:30:49.837Z,7.09
2017-12-19T22:31:30.393Z,7.06
2017-12-19T22:32:11.143Z,7.09
2017-12-19T22:32:51.980Z,7.09
2017-12-19T22:33:32.495Z,7.02
2017-12-19T22:34:13.061Z,6.92
2017-12-19T22:34:53.540Z,6.8
2017-12-19T22:35:37.397Z,6.91
2017-12-19T22:36:17.945Z,6.88
2017-12-19T22:36:58.452Z,6.8
2017-12-19T22:37:39.321Z,6.97
2017-12-19T22:38:19.888Z,6.87
2017-12-19T22:39:00.535Z,6.97
2017-12-19T22:39:40.976Z,7.05
2017-12-19T22:40:21.536Z,6.99
2017-12-19T22:41:02.089Z,7.03
2017-12-19T22:41:42.562Z,6.91
2017-12-19T22:42:23.118Z,6.95
2017-12-19T22:43:03.690Z,6.8
2017-12-19T22:43:44.279Z,6.85
2017-12-19T22:44:24.804Z,6.88
2017-12-19T22:45:05.374Z,6.89
2017-12-19T22:45:45.924Z,6.98
2017-12-19T22:46:26.482Z,6.84
2017-12-19T22:47:07.019Z,6.91
2017-12-19T22:47:47.519Z,6.94
2017-12-19T22:48:28.061Z,6.97
2017-12-19T22:49:08.661Z,6.91
2017-12-19T22:49:49.144Z,6.85
2017-12-19T22:50:29.700Z,6.88
2017-12-19T22:51:10.232Z,7.02
2017-12-19T22:51:50.764Z,6.99
2017-12-19T22:52:31.341Z,7.02
2017-12-19T22:53:11.856Z,6.91
2017-12-19T22:53:52.483Z,6.89
2017-12-19T22:54:33.001Z,6.98
2017-12-19T22:55:13.534Z,7.03
2017-12-19T22:55:54.031Z,7.02
2017-12-19T22:56:34.600Z,6.98
2017-12-19T22:57:15.153Z,7.02
2017-12-19T22:57:55.691Z,7.1
2017-12-19T22:58:36.239Z,7.09
2017-12-19T22:59:16.875Z,7.02
2017-12-19T22:59:57.412Z,7.05
2017-12-19T23:00:37.968Z,7.13
2017-12-19T23:01:18.558Z,6.99
2017-12-19T23:01:59.076Z,6.89
2017-12-19T23:02:39.590Z,6.92
2017-12-19T23:03:20.166Z,6.8
2017-12-19T23:04:00.677Z,6.79
2017-12-19T23:04:41.226Z,6.85
2017-12-19T23:05:21.804Z,6.85
2017-12-19T23:06:02.368Z,6.91
2017-12-19T23:06:42.884Z,7.02
2017-12-19T23:07:23.396Z,6.89
2017-12-19T23:08:03.931Z,7.02
2017-12-19T23:08:44.455Z,6.81
2017-12-19T23:09:25.017Z,6.88
2017-12-19T23:10:05.608Z,6.89
2017-12-19T23:10:46.142Z,7.02
2017-12-19T23:11:26.732Z,6.98
2017-12-19T23:12:07.333Z,6.99
2017-12-19T23:12:47.851Z,6.99
2017-12-19T23:13:28.429Z,7.02
2017-12-19T23:14:08.964Z,7.09
2017-12-19T23:14:49.580Z,7.1
2017-12-19T23:15:30.083Z,7.09
2017-12-19T23:16:10.595Z,7.13
2017-12-19T23:16:51.204Z,7.12
2017-12-19T23:17:31.716Z,7.15
2017-12-19T23:18:12.266Z,7.2
2017-12-19T23:18:52.813Z,7.25
2017-12-19T23:19:33.373Z,7.23
2017-12-19T23:20:13.923Z,7.17
2017-12-19T23:20:54.463Z,7.17
2017-12-19T23:21:34.972Z,7.07
2017-12-19T23:22:15.542Z,7.12
2017-12-19T23:22:56.029Z,7.1
2017-12-19T23:23:36.625Z,7.12
2017-12-19T23:24:17.148Z,7.13
2017-12-19T23:24:57.692Z,7.12
2017-12-19T23:25:38.198Z,7.1
2017-12-19T23:26:18.744Z,7.12
2017-12-19T23:26:59.316Z,7.09
2017-12-19T23:27:39.857Z,7.07
2017-12-19T23:28:20.356Z,7.16
2017-12-19T23:29:00.965Z,7.13
2017-12-19T23:29:41.506Z,7.24
2017-12-19T23:30:21.998Z,7.27
2017-12-19T23:31:02.533Z,7.34
2017-12-19T23:31:43.066Z,7.28
2017-12-19T23:32:23.603Z,7.27
2017-12-19T23:33:04.118Z,7.32
2017-12-19T23:33:44.649Z,7.21
2017-12-19T23:34:25.214Z,7.16
2017-12-19T23:35:05.746Z,7.21
2017-12-19T23:35:46.311Z,7.31
2017-12-19T23:36:26.836Z,7.17
2017-12-19T23:37:07.392Z,7.23
2017-12-19T23:37:47.911Z,7.25
2017-12-19T23:38:28.520Z,7.21
2017-12-19T23:39:09.085Z,7.15
2017-12-19T23:39:49.640Z,7.2
2017-12-19T23:40:30.207Z,7.15
2017-12-19T23:41:10.719Z,7.24
2017-12-19T23:41:51.216Z,7.13
2017-12-19T23:42:31.754Z,7.2
2017-12-19T23:43:12.295Z,7.25
2017-12-19T23:43:52.831Z,7.25
2017-12-19T23:44:33.328Z,7.31
2017-12-19T23:45:13.863Z,7.17
2017-12-19T23:45:54.456Z,7.13
2017-12-19T23:46:34.934Z,7.23
2017-12-19T23:47:15.462Z,7.27
2017-12-19T23:47:56.041Z,7.35
2017-12-19T23:48:36.717Z,7.27
2017-12-19T23:49:17.281Z,7.3
2017-12-19T23:49:57.817Z,7.3
2017-12-19T23:50:38.369Z,7.31
2017-12-19T23:51:18.972Z,7.35
2017-12-19T23:51:59.496Z,7.39
2017-12-19T23:52:40.064Z,7.35
2017-12-19T23:53:20.553Z,7.27
2017-12-19T23:54:01.110Z,7.3
2017-12-19T23:54:41.623Z,7.2
2017-12-19T23:55:22.180Z,7.32
2017-12-19T23:56:02.734Z,7.34
2017-12-19T23:56:43.273Z,7.27
2017-12-19T23:57:23.843Z,7.34
2017-12-19T23:58:04.308Z,7.35
2017-12-19T23:58:44.826Z,7.28
2017-12-19T23:59:25.386Z,7.32
